sensor_id;sensor_type;location;lat;lon;timestamp;temperature;humidity
43884;DHT22;29544;52.018;5.810;2022-08-23T00:01:46;23.90;56.60
43884;DHT22;29544;52.018;5.810;2022-08-23T00:04:15;23.80;56.60
43884;DHT22;29544;52.018;5.810;2022-08-23T00:06:43;23.80;56.70
43884;DHT22;29544;52.018;5.810;2022-08-23T00:09:10;23.80;56.70
43884;DHT22;29544;52.018;5.810;2022-08-23T00:11:40;23.80;56.70
43884;DHT22;29544;52.018;5.810;2022-08-23T00:16:37;23.80;56.80
43884;DHT22;29544;52.018;5.810;2022-08-23T00:19:04;23.80;56.80
43884;DHT22;29544;52.018;5.810;2022-08-23T00:21:30;23.80;56.80
43884;DHT22;29544;52.018;5.810;2022-08-23T00:23:56;23.80;56.90
43884;DHT22;29544;52.018;5.810;2022-08-23T00:26:21;23.80;56.90
43884;DHT22;29544;52.018;5.810;2022-08-23T00:28:48;23.90;57.00
43884;DHT22;29544;52.018;5.810;2022-08-23T00:31:16;23.80;56.90
43884;DHT22;29544;52.018;5.810;2022-08-23T00:33:41;23.90;57.00
43884;DHT22;29544;52.018;5.810;2022-08-23T00:36:07;23.80;57.10
43884;DHT22;29544;52.018;5.810;2022-08-23T00:38:33;23.70;57.00
43884;DHT22;29544;52.018;5.810;2022-08-23T00:40:59;23.80;57.10
43884;DHT22;29544;52.018;5.810;2022-08-23T00:43:36;23.70;57.10
43884;DHT22;29544;52.018;5.810;2022-08-23T00:46:39;23.90;57.20
43884;DHT22;29544;52.018;5.810;2022-08-23T00:49:25;23.70;57.10
43884;DHT22;29544;52.018;5.810;2022-08-23T00:52:07;23.70;57.20
43884;DHT22;29544;52.018;5.810;2022-08-23T00:54:35;23.70;57.20
43884;DHT22;29544;52.018;5.810;2022-08-23T00:57:05;23.70;57.20
43884;DHT22;29544;52.018;5.810;2022-08-23T00:59:32;23.70;57.30
43884;DHT22;29544;52.018;5.810;2022-08-23T01:01:59;23.70;57.20
43884;DHT22;29544;52.018;5.810;2022-08-23T01:04:28;23.70;57.30
43884;DHT22;29544;52.018;5.810;2022-08-23T01:07:06;23.70;57.30
43884;DHT22;29544;52.018;5.810;2022-08-23T01:09:36;23.70;57.40
43884;DHT22;29544;52.018;5.810;2022-08-23T01:12:15;23.70;57.30
43884;DHT22;29544;52.018;5.810;2022-08-23T01:14:46;23.70;57.40
43884;DHT22;29544;52.018;5.810;2022-08-23T01:17:21;23.70;57.40
43884;DHT22;29544;52.018;5.810;2022-08-23T01:19:56;23.70;57.40
43884;DHT22;29544;52.018;5.810;2022-08-23T01:25:37;23.70;57.40
43884;DHT22;29544;52.018;5.810;2022-08-23T01:28:03;23.60;57.40
43884;DHT22;29544;52.018;5.810;2022-08-23T01:30:30;23.60;57.40
43884;DHT22;29544;52.018;5.810;2022-08-23T01:32:59;23.60;57.40
43884;DHT22;29544;52.018;5.810;2022-08-23T01:35:49;23.60;57.50
43884;DHT22;29544;52.018;5.810;2022-08-23T01:38:15;23.60;57.60
43884;DHT22;29544;52.018;5.810;2022-08-23T01:40:42;23.60;57.50
43884;DHT22;29544;52.018;5.810;2022-08-23T01:43:09;23.60;57.60
43884;DHT22;29544;52.018;5.810;2022-08-23T01:45:36;23.60;57.70
43884;DHT22;29544;52.018;5.810;2022-08-23T01:48:01;23.60;57.70
43884;DHT22;29544;52.018;5.810;2022-08-23T02:05:31;23.40;57.60
43884;DHT22;29544;52.018;5.810;2022-08-23T02:07:57;23.50;57.70
43884;DHT22;29544;52.018;5.810;2022-08-23T02:10:46;23.50;57.70
43884;DHT22;29544;52.018;5.810;2022-08-23T02:13:11;23.50;57.80
43884;DHT22;29544;52.018;5.810;2022-08-23T02:15:37;23.50;57.80
43884;DHT22;29544;52.018;5.810;2022-08-23T02:18:06;23.50;57.80
43884;DHT22;29544;52.018;5.810;2022-08-23T02:20:31;23.50;57.90
43884;DHT22;29544;52.018;5.810;2022-08-23T02:22:57;23.50;57.90
43884;DHT22;29544;52.018;5.810;2022-08-23T02:25:22;23.50;57.90
43884;DHT22;29544;52.018;5.810;2022-08-23T02:27:48;23.50;57.90
43884;DHT22;29544;52.018;5.810;2022-08-23T02:30:13;23.50;58.00
43884;DHT22;29544;52.018;5.810;2022-08-23T02:32:39;23.50;57.90
43884;DHT22;29544;52.018;5.810;2022-08-23T02:35:06;23.50;58.00
43884;DHT22;29544;52.018;5.810;2022-08-23T02:37:33;23.50;57.90
43884;DHT22;29544;52.018;5.810;2022-08-23T02:39:58;23.50;57.90
43884;DHT22;29544;52.018;5.810;2022-08-23T02:42:24;23.40;57.90
43884;DHT22;29544;52.018;5.810;2022-08-23T02:44:50;23.40;58.00
43884;DHT22;29544;52.018;5.810;2022-08-23T02:47:15;23.40;58.00
43884;DHT22;29544;52.018;5.810;2022-08-23T02:49:41;23.40;58.00
43884;DHT22;29544;52.018;5.810;2022-08-23T02:52:07;23.30;58.00
43884;DHT22;29544;52.018;5.810;2022-08-23T02:54:34;23.40;58.00
43884;DHT22;29544;52.018;5.810;2022-08-23T02:57:00;23.40;58.10
43884;DHT22;29544;52.018;5.810;2022-08-23T02:59:26;23.30;58.00
43884;DHT22;29544;52.018;5.810;2022-08-23T03:01:51;23.30;58.00
43884;DHT22;29544;52.018;5.810;2022-08-23T03:04:17;23.40;58.10
43884;DHT22;29544;52.018;5.810;2022-08-23T03:06:43;23.30;58.00
43884;DHT22;29544;52.018;5.810;2022-08-23T03:09:09;23.30;58.10
43884;DHT22;29544;52.018;5.810;2022-08-23T03:11:36;23.40;58.10
43884;DHT22;29544;52.018;5.810;2022-08-23T03:14:03;23.30;58.10
43884;DHT22;29544;52.018;5.810;2022-08-23T03:16:29;23.30;58.10
43884;DHT22;29544;52.018;5.810;2022-08-23T03:18:54;23.30;58.10
43884;DHT22;29544;52.018;5.810;2022-08-23T03:21:20;23.30;58.10
43884;DHT22;29544;52.018;5.810;2022-08-23T03:23:46;23.30;58.10
43884;DHT22;29544;52.018;5.810;2022-08-23T03:26:13;23.20;58.10
43884;DHT22;29544;52.018;5.810;2022-08-23T03:28:39;23.30;58.10
43884;DHT22;29544;52.018;5.810;2022-08-23T03:31:06;23.30;58.10
43884;DHT22;29544;52.018;5.810;2022-08-23T03:33:32;23.30;58.20
43884;DHT22;29544;52.018;5.810;2022-08-23T03:36:00;23.30;58.50
43884;DHT22;29544;52.018;5.810;2022-08-23T05:41:04;22.80;58.50
43884;DHT22;29544;52.018;5.810;2022-08-23T05:43:30;22.90;58.50
43884;DHT22;29544;52.018;5.810;2022-08-23T05:46:04;22.90;58.60
43884;DHT22;29544;52.018;5.810;2022-08-23T05:48:34;22.90;58.60
43884;DHT22;29544;52.018;5.810;2022-08-23T05:51:11;22.90;58.60
43884;DHT22;29544;52.018;5.810;2022-08-23T05:53:39;22.90;58.60
43884;DHT22;29544;52.018;5.810;2022-08-23T05:56:14;22.90;58.70
43884;DHT22;29544;52.018;5.810;2022-08-23T05:58:41;22.90;58.70
43884;DHT22;29544;52.018;5.810;2022-08-23T06:01:07;23.00;58.70
43884;DHT22;29544;52.018;5.810;2022-08-23T06:03:33;22.90;58.70
43884;DHT22;29544;52.018;5.810;2022-08-23T06:05:59;22.90;58.70
43884;DHT22;29544;52.018;5.810;2022-08-23T06:08:26;22.90;58.70
43884;DHT22;29544;52.018;5.810;2022-08-23T06:11:05;22.90;58.80
43884;DHT22;29544;52.018;5.810;2022-08-23T06:13:32;22.80;58.80
43884;DHT22;29544;52.018;5.810;2022-08-23T06:15:59;22.80;58.70
43884;DHT22;29544;52.018;5.810;2022-08-23T06:18:25;22.80;58.80
43884;DHT22;29544;52.018;5.810;2022-08-23T06:20:59;22.90;58.80
43884;DHT22;29544;52.018;5.810;2022-08-23T06:23:25;22.90;58.90
43884;DHT22;29544;52.018;5.810;2022-08-23T06:25:51;22.80;58.80
43884;DHT22;29544;52.018;5.810;2022-08-23T06:28:17;22.90;58.90
43884;DHT22;29544;52.018;5.810;2022-08-23T06:30:42;22.80;58.90
43884;DHT22;29544;52.018;5.810;2022-08-23T06:33:08;22.90;59.60
43884;DHT22;29544;52.018;5.810;2022-08-23T06:35:33;22.90;59.00
43884;DHT22;29544;52.018;5.810;2022-08-23T06:38:02;22.80;59.00
43884;DHT22;29544;52.018;5.810;2022-08-23T06:40:27;22.80;59.00
43884;DHT22;29544;52.018;5.810;2022-08-23T06:42:53;22.80;59.10
43884;DHT22;29544;52.018;5.810;2022-08-23T06:45:19;22.80;59.00
43884;DHT22;29544;52.018;5.810;2022-08-23T06:47:45;22.80;59.20
43884;DHT22;29544;52.018;5.810;2022-08-23T06:50:11;22.80;59.20
43884;DHT22;29544;52.018;5.810;2022-08-23T06:52:36;22.80;59.20
43884;DHT22;29544;52.018;5.810;2022-08-23T06:55:03;22.90;59.30
43884;DHT22;29544;52.018;5.810;2022-08-23T06:57:29;22.80;59.30
43884;DHT22;29544;52.018;5.810;2022-08-23T06:59:56;22.80;59.30
43884;DHT22;29544;52.018;5.810;2022-08-23T07:02:22;22.90;59.40
43884;DHT22;29544;52.018;5.810;2022-08-23T07:04:48;22.90;59.40
43884;DHT22;29544;52.018;5.810;2022-08-23T07:07:18;22.80;59.40
43884;DHT22;29544;52.018;5.810;2022-08-23T07:09:44;22.90;59.40
43884;DHT22;29544;52.018;5.810;2022-08-23T07:12:10;22.90;59.60
43884;DHT22;29544;52.018;5.810;2022-08-23T07:14:36;22.90;59.60
43884;DHT22;29544;52.018;5.810;2022-08-23T07:17:02;22.80;59.60
43884;DHT22;29544;52.018;5.810;2022-08-23T07:19:29;22.80;59.50
43884;DHT22;29544;52.018;5.810;2022-08-23T07:21:57;22.80;59.60
43884;DHT22;29544;52.018;5.810;2022-08-23T07:24:23;22.80;59.60
43884;DHT22;29544;52.018;5.810;2022-08-23T09:18:36;23.10;60.70
43884;DHT22;29544;52.018;5.810;2022-08-23T09:21:05;23.00;60.60
43884;DHT22;29544;52.018;5.810;2022-08-23T09:26:04;23.20;60.70
43884;DHT22;29544;52.018;5.810;2022-08-23T09:28:35;23.10;60.70
43884;DHT22;29544;52.018;5.810;2022-08-23T09:31:02;23.20;60.70
43884;DHT22;29544;52.018;5.810;2022-08-23T09:33:43;23.10;60.70
43884;DHT22;29544;52.018;5.810;2022-08-23T09:36:24;23.20;60.70
43884;DHT22;29544;52.018;5.810;2022-08-23T09:41:42;23.20;60.70
43884;DHT22;29544;52.018;5.810;2022-08-23T09:44:11;23.20;60.70
43884;DHT22;29544;52.018;5.810;2022-08-23T09:46:39;23.20;60.70
43884;DHT22;29544;52.018;5.810;2022-08-23T09:49:26;23.20;60.70
43884;DHT22;29544;52.018;5.810;2022-08-23T09:51:54;23.30;60.70
43884;DHT22;29544;52.018;5.810;2022-08-23T09:54:33;23.30;60.80
43884;DHT22;29544;52.018;5.810;2022-08-23T09:57:02;23.30;60.70
43884;DHT22;29544;52.018;5.810;2022-08-23T09:59:39;23.30;60.70
43884;DHT22;29544;52.018;5.810;2022-08-23T10:02:13;23.30;60.60
43884;DHT22;29544;52.018;5.810;2022-08-23T10:04:46;23.30;60.60
43884;DHT22;29544;52.018;5.810;2022-08-23T10:09:53;23.30;60.60
43884;DHT22;29544;52.018;5.810;2022-08-23T10:12:19;23.40;60.70
43884;DHT22;29544;52.018;5.810;2022-08-23T10:14:45;23.40;60.70
43884;DHT22;29544;52.018;5.810;2022-08-23T10:20:46;23.40;60.60
43884;DHT22;29544;52.018;5.810;2022-08-23T10:26:04;23.40;60.50
43884;DHT22;29544;52.018;5.810;2022-08-23T10:28:54;23.40;60.50
43884;DHT22;29544;52.018;5.810;2022-08-23T10:34:42;23.50;60.60
43884;DHT22;29544;52.018;5.810;2022-08-23T10:37:32;23.50;60.60
43884;DHT22;29544;52.018;5.810;2022-08-23T10:40:14;23.60;60.70
43884;DHT22;29544;52.018;5.810;2022-08-23T10:45:37;23.60;60.50
43884;DHT22;29544;52.018;5.810;2022-08-23T10:54:55;23.70;60.50
43884;DHT22;29544;52.018;5.810;2022-08-23T10:57:33;23.70;60.50
43884;DHT22;29544;52.018;5.810;2022-08-23T11:00:03;23.70;60.40
43884;DHT22;29544;52.018;5.810;2022-08-23T11:02:35;23.80;60.50
43884;DHT22;29544;52.018;5.810;2022-08-23T11:08:00;23.90;60.40
43884;DHT22;29544;52.018;5.810;2022-08-23T11:10:45;23.90;60.40
43884;DHT22;29544;52.018;5.810;2022-08-23T11:15:57;23.90;60.20
43884;DHT22;29544;52.018;5.810;2022-08-23T11:23:50;24.00;60.20
43884;DHT22;29544;52.018;5.810;2022-08-23T11:32:01;24.10;60.10
43884;DHT22;29544;52.018;5.810;2022-08-23T11:34:32;24.10;60.10
43884;DHT22;29544;52.018;5.810;2022-08-23T11:43:08;24.20;60.00
43884;DHT22;29544;52.018;5.810;2022-08-23T11:50:57;24.30;59.70
43884;DHT22;29544;52.018;5.810;2022-08-23T11:53:41;24.30;59.70
43884;DHT22;29544;52.018;5.810;2022-08-23T12:01:32;24.40;59.50
43884;DHT22;29544;52.018;5.810;2022-08-23T12:04:29;24.40;59.50
43884;DHT22;29544;52.018;5.810;2022-08-23T12:06:56;24.50;59.50
43884;DHT22;29544;52.018;5.810;2022-08-23T12:20:08;24.60;59.80
43884;DHT22;29544;52.018;5.810;2022-08-23T12:25:26;24.70;59.30
43884;DHT22;29544;52.018;5.810;2022-08-23T12:27:58;24.70;59.40
43884;DHT22;29544;52.018;5.810;2022-08-23T12:30:40;24.70;59.10
43884;DHT22;29544;52.018;5.810;2022-08-23T12:33:33;24.70;59.20
43884;DHT22;29544;52.018;5.810;2022-08-23T12:36:29;24.80;59.20
43884;DHT22;29544;52.018;5.810;2022-08-23T12:39:06;24.80;59.20
43884;DHT22;29544;52.018;5.810;2022-08-23T12:45:04;24.80;58.90
43884;DHT22;29544;52.018;5.810;2022-08-23T12:47:31;24.80;58.70
43884;DHT22;29544;52.018;5.810;2022-08-23T12:52:29;24.80;58.60
43884;DHT22;29544;52.018;5.810;2022-08-23T12:54:56;24.80;58.70
43884;DHT22;29544;52.018;5.810;2022-08-23T12:57:37;24.90;58.70
43884;DHT22;29544;52.018;5.810;2022-08-23T13:02:39;24.90;58.70
43884;DHT22;29544;52.018;5.810;2022-08-23T13:05:18;24.90;58.60
43884;DHT22;29544;52.018;5.810;2022-08-23T13:07:46;25.00;58.70
43884;DHT22;29544;52.018;5.810;2022-08-23T13:10:13;25.00;58.60
43884;DHT22;29544;52.018;5.810;2022-08-23T13:12:40;25.00;58.70
43884;DHT22;29544;52.018;5.810;2022-08-23T13:15:07;24.90;58.70
43884;DHT22;29544;52.018;5.810;2022-08-23T13:17:35;25.00;58.70
43884;DHT22;29544;52.018;5.810;2022-08-23T13:22:37;25.10;58.50
43884;DHT22;29544;52.018;5.810;2022-08-23T13:27:51;25.10;58.50
43884;DHT22;29544;52.018;5.810;2022-08-23T13:32:43;25.10;58.50
43884;DHT22;29544;52.018;5.810;2022-08-23T13:40:41;25.10;58.80
43884;DHT22;29544;52.018;5.810;2022-08-23T13:43:11;25.20;58.90
43884;DHT22;29544;52.018;5.810;2022-08-23T13:45:50;25.30;59.00
43884;DHT22;29544;52.018;5.810;2022-08-23T13:48:20;25.20;59.00
43884;DHT22;29544;52.018;5.810;2022-08-23T13:50:47;25.20;59.00
43884;DHT22;29544;52.018;5.810;2022-08-23T13:53:12;25.20;58.90
43884;DHT22;29544;52.018;5.810;2022-08-23T13:55:52;25.30;59.60
43884;DHT22;29544;52.018;5.810;2022-08-23T13:58:30;25.30;59.00
43884;DHT22;29544;52.018;5.810;2022-08-23T14:00:58;25.30;59.00
43884;DHT22;29544;52.018;5.810;2022-08-23T14:03:27;25.30;59.00
43884;DHT22;29544;52.018;5.810;2022-08-23T14:05:53;25.40;59.10
43884;DHT22;29544;52.018;5.810;2022-08-23T14:08:20;25.40;59.10
43884;DHT22;29544;52.018;5.810;2022-08-23T14:10:45;25.50;59.00
43884;DHT22;29544;52.018;5.810;2022-08-23T14:13:13;25.50;59.00
43884;DHT22;29544;52.018;5.810;2022-08-23T14:15:40;25.50;59.00
43884;DHT22;29544;52.018;5.810;2022-08-23T14:18:07;25.40;58.90
43884;DHT22;29544;52.018;5.810;2022-08-23T14:20:33;25.60;59.00
43884;DHT22;29544;52.018;5.810;2022-08-23T14:22:59;25.60;58.90
43884;DHT22;29544;52.018;5.810;2022-08-23T14:25:25;25.60;58.80
43884;DHT22;29544;52.018;5.810;2022-08-23T14:27:51;25.70;58.90
43884;DHT22;29544;52.018;5.810;2022-08-23T14:30:35;25.70;58.80
43884;DHT22;29544;52.018;5.810;2022-08-23T14:33:01;25.70;58.90
43884;DHT22;29544;52.018;5.810;2022-08-23T14:35:27;25.80;58.70
43884;DHT22;29544;52.018;5.810;2022-08-23T14:37:53;25.80;58.70
43884;DHT22;29544;52.018;5.810;2022-08-23T14:40:19;25.80;58.60
43884;DHT22;29544;52.018;5.810;2022-08-23T14:42:45;25.80;58.50
43884;DHT22;29544;52.018;5.810;2022-08-23T14:45:12;25.90;58.50
43884;DHT22;29544;52.018;5.810;2022-08-23T14:47:38;25.90;58.40
43884;DHT22;29544;52.018;5.810;2022-08-23T14:50:05;25.90;58.40
43884;DHT22;29544;52.018;5.810;2022-08-23T14:52:31;25.90;58.40
43884;DHT22;29544;52.018;5.810;2022-08-23T14:54:57;25.90;58.30
43884;DHT22;29544;52.018;5.810;2022-08-23T14:57:23;25.90;58.90
43884;DHT22;29544;52.018;5.810;2022-08-23T14:59:49;26.00;58.30
43884;DHT22;29544;52.018;5.810;2022-08-23T15:02:19;26.00;58.20
43884;DHT22;29544;52.018;5.810;2022-08-23T15:04:45;26.10;58.20
43884;DHT22;29544;52.018;5.810;2022-08-23T15:07:11;26.10;58.10
43884;DHT22;29544;52.018;5.810;2022-08-23T15:09:36;26.10;58.10
43884;DHT22;29544;52.018;5.810;2022-08-23T15:12:02;26.10;58.10
43884;DHT22;29544;52.018;5.810;2022-08-23T15:14:28;26.10;57.90
43884;DHT22;29544;52.018;5.810;2022-08-23T15:16:53;26.10;57.90
43884;DHT22;29544;52.018;5.810;2022-08-23T15:19:19;26.10;57.90
43884;DHT22;29544;52.018;5.810;2022-08-23T15:21:45;26.10;57.80
43884;DHT22;29544;52.018;5.810;2022-08-23T15:24:10;26.20;57.80
43884;DHT22;29544;52.018;5.810;2022-08-23T15:26:36;26.20;57.80
43884;DHT22;29544;52.018;5.810;2022-08-23T15:29:03;26.30;57.80
43884;DHT22;29544;52.018;5.810;2022-08-23T15:31:29;26.20;57.70
43884;DHT22;29544;52.018;5.810;2022-08-23T15:33:54;26.20;57.60
43884;DHT22;29544;52.018;5.810;2022-08-23T15:36:20;26.20;57.60
43884;DHT22;29544;52.018;5.810;2022-08-23T15:38:47;26.30;57.60
43884;DHT22;29544;52.018;5.810;2022-08-23T15:41:15;26.30;57.70
43884;DHT22;29544;52.018;5.810;2022-08-23T15:43:41;26.30;57.70
43884;DHT22;29544;52.018;5.810;2022-08-23T15:46:08;26.30;57.50
43884;DHT22;29544;52.018;5.810;2022-08-23T15:49:04;26.30;57.60
43884;DHT22;29544;52.018;5.810;2022-08-23T15:51:35;26.30;57.40
43884;DHT22;29544;52.018;5.810;2022-08-23T15:54:01;26.30;57.40
43884;DHT22;29544;52.018;5.810;2022-08-23T15:56:28;26.30;57.60
43884;DHT22;29544;52.018;5.810;2022-08-23T15:58:55;26.30;57.50
43884;DHT22;29544;52.018;5.810;2022-08-23T16:01:20;26.30;57.40
43884;DHT22;29544;52.018;5.810;2022-08-23T16:03:48;26.30;57.40
43884;DHT22;29544;52.018;5.810;2022-08-23T16:06:14;26.30;57.40
43884;DHT22;29544;52.018;5.810;2022-08-23T16:08:41;26.30;57.40
43884;DHT22;29544;52.018;5.810;2022-08-23T16:11:07;26.30;57.30
43884;DHT22;29544;52.018;5.810;2022-08-23T16:13:42;26.30;57.50
43884;DHT22;29544;52.018;5.810;2022-08-23T16:16:18;26.30;57.40
43884;DHT22;29544;52.018;5.810;2022-08-23T16:18:45;26.30;57.30
43884;DHT22;29544;52.018;5.810;2022-08-23T16:21:12;26.30;57.30
43884;DHT22;29544;52.018;5.810;2022-08-23T16:23:38;26.30;57.30
43884;DHT22;29544;52.018;5.810;2022-08-23T16:26:08;26.20;57.20
43884;DHT22;29544;52.018;5.810;2022-08-23T16:28:34;26.20;57.20
43884;DHT22;29544;52.018;5.810;2022-08-23T16:31:00;26.20;57.20
43884;DHT22;29544;52.018;5.810;2022-08-23T16:33:25;26.20;57.20
43884;DHT22;29544;52.018;5.810;2022-08-23T16:35:51;26.20;57.20
43884;DHT22;29544;52.018;5.810;2022-08-23T16:38:17;26.20;57.20
43884;DHT22;29544;52.018;5.810;2022-08-23T16:40:42;26.30;57.30
43884;DHT22;29544;52.018;5.810;2022-08-23T16:43:08;26.20;57.20
43884;DHT22;29544;52.018;5.810;2022-08-23T16:45:34;26.20;57.20
43884;DHT22;29544;52.018;5.810;2022-08-23T16:47:59;26.20;57.20
43884;DHT22;29544;52.018;5.810;2022-08-23T16:50:25;26.20;57.30
43884;DHT22;29544;52.018;5.810;2022-08-23T16:52:51;26.20;57.30
43884;DHT22;29544;52.018;5.810;2022-08-23T16:55:16;26.20;57.20
43884;DHT22;29544;52.018;5.810;2022-08-23T16:57:42;26.10;57.20
43884;DHT22;29544;52.018;5.810;2022-08-23T17:00:08;26.10;57.30
43884;DHT22;29544;52.018;5.810;2022-08-23T17:02:37;26.20;57.30
43884;DHT22;29544;52.018;5.810;2022-08-23T17:05:10;26.10;57.90
43884;DHT22;29544;52.018;5.810;2022-08-23T17:07:35;26.10;57.30
43884;DHT22;29544;52.018;5.810;2022-08-23T17:10:02;26.10;57.30
43884;DHT22;29544;52.018;5.810;2022-08-23T17:12:28;26.10;57.30
43884;DHT22;29544;52.018;5.810;2022-08-23T17:14:55;26.10;57.30
43884;DHT22;29544;52.018;5.810;2022-08-23T17:17:22;26.10;57.30
43884;DHT22;29544;52.018;5.810;2022-08-23T17:19:48;26.10;57.40
43884;DHT22;29544;52.018;5.810;2022-08-23T17:22:14;26.10;57.30
43884;DHT22;29544;52.018;5.810;2022-08-23T17:24:39;26.10;57.40
43884;DHT22;29544;52.018;5.810;2022-08-23T17:27:05;26.10;57.30
43884;DHT22;29544;52.018;5.810;2022-08-23T17:29:31;25.90;57.30
43884;DHT22;29544;52.018;5.810;2022-08-23T17:31:57;25.90;57.40
43884;DHT22;29544;52.018;5.810;2022-08-23T17:34:23;26.10;57.60
43884;DHT22;29544;52.018;5.810;2022-08-23T17:36:51;26.10;57.60
43884;DHT22;29544;52.018;5.810;2022-08-23T17:39:21;26.10;58.00
43884;DHT22;29544;52.018;5.810;2022-08-23T17:41:48;26.00;58.10
43884;DHT22;29544;52.018;5.810;2022-08-23T17:44:14;26.10;58.10
43884;DHT22;29544;52.018;5.810;2022-08-23T17:46:42;26.10;58.10
43884;DHT22;29544;52.018;5.810;2022-08-23T17:49:09;26.10;58.10
43884;DHT22;29544;52.018;5.810;2022-08-23T17:51:35;25.90;57.90
43884;DHT22;29544;52.018;5.810;2022-08-23T17:54:05;26.00;58.00
43884;DHT22;29544;52.018;5.810;2022-08-23T17:56:31;26.00;57.90
43884;DHT22;29544;52.018;5.810;2022-08-23T17:58:57;26.10;58.00
43884;DHT22;29544;52.018;5.810;2022-08-23T18:01:23;26.00;58.00
43884;DHT22;29544;52.018;5.810;2022-08-23T18:03:49;25.90;57.90
43884;DHT22;29544;52.018;5.810;2022-08-23T18:06:16;25.90;58.00
43884;DHT22;29544;52.018;5.810;2022-08-23T18:08:42;26.00;58.10
43884;DHT22;29544;52.018;5.810;2022-08-23T18:11:07;25.90;58.10
43884;DHT22;29544;52.018;5.810;2022-08-23T18:13:33;26.00;58.40
43884;DHT22;29544;52.018;5.810;2022-08-23T18:15:59;25.90;58.40
43884;DHT22;29544;52.018;5.810;2022-08-23T18:18:25;25.90;58.50
43884;DHT22;29544;52.018;5.810;2022-08-23T18:20:53;25.90;58.50
43884;DHT22;29544;52.018;5.810;2022-08-23T18:23:19;25.90;58.50
43884;DHT22;29544;52.018;5.810;2022-08-23T18:25:46;25.90;58.50
43884;DHT22;29544;52.018;5.810;2022-08-23T18:28:13;25.90;58.50
43884;DHT22;29544;52.018;5.810;2022-08-23T18:30:50;25.90;58.60
43884;DHT22;29544;52.018;5.810;2022-08-23T18:33:17;25.90;58.70
43884;DHT22;29544;52.018;5.810;2022-08-23T18:35:44;25.80;58.60
43884;DHT22;29544;52.018;5.810;2022-08-23T18:38:10;25.90;58.70
43884;DHT22;29544;52.018;5.810;2022-08-23T18:40:41;25.90;58.80
43884;DHT22;29544;52.018;5.810;2022-08-23T18:43:14;25.90;58.80
43884;DHT22;29544;52.018;5.810;2022-08-23T18:45:41;25.90;58.80
43884;DHT22;29544;52.018;5.810;2022-08-23T18:48:07;25.90;58.90
43884;DHT22;29544;52.018;5.810;2022-08-23T18:50:33;25.90;58.90
43884;DHT22;29544;52.018;5.810;2022-08-23T18:52:59;25.90;58.90
43884;DHT22;29544;52.018;5.810;2022-08-23T18:55:25;25.90;58.90
43884;DHT22;29544;52.018;5.810;2022-08-23T18:57:51;25.90;58.90
43884;DHT22;29544;52.018;5.810;2022-08-23T19:00:16;25.80;58.80
43884;DHT22;29544;52.018;5.810;2022-08-23T19:02:42;25.80;58.80
43884;DHT22;29544;52.018;5.810;2022-08-23T19:05:08;25.80;58.80
43884;DHT22;29544;52.018;5.810;2022-08-23T19:07:34;25.80;58.80
43884;DHT22;29544;52.018;5.810;2022-08-23T19:09:59;25.80;58.80
43884;DHT22;29544;52.018;5.810;2022-08-23T19:12:26;25.90;58.80
43884;DHT22;29544;52.018;5.810;2022-08-23T19:14:53;25.80;58.70
43884;DHT22;29544;52.018;5.810;2022-08-23T19:17:19;25.70;58.80
43884;DHT22;29544;52.018;5.810;2022-08-23T19:19:45;25.70;58.70
43884;DHT22;29544;52.018;5.810;2022-08-23T19:22:11;25.80;58.80
43884;DHT22;29544;52.018;5.810;2022-08-23T19:24:37;25.80;58.80
43884;DHT22;29544;52.018;5.810;2022-08-23T19:27:03;25.70;58.70
43884;DHT22;29544;52.018;5.810;2022-08-23T19:29:29;25.90;58.80
43884;DHT22;29544;52.018;5.810;2022-08-23T19:31:56;25.70;58.70
43884;DHT22;29544;52.018;5.810;2022-08-23T19:34:21;25.70;58.70
43884;DHT22;29544;52.018;5.810;2022-08-23T19:36:48;25.70;58.70
43884;DHT22;29544;52.018;5.810;2022-08-23T19:39:14;25.70;58.60
43884;DHT22;29544;52.018;5.810;2022-08-23T19:41:40;25.70;58.70
43884;DHT22;29544;52.018;5.810;2022-08-23T19:44:06;25.80;58.70
43884;DHT22;29544;52.018;5.810;2022-08-23T19:46:33;25.70;58.70
43884;DHT22;29544;52.018;5.810;2022-08-23T19:49:00;25.70;58.70
43884;DHT22;29544;52.018;5.810;2022-08-23T19:51:25;25.70;58.80
43884;DHT22;29544;52.018;5.810;2022-08-23T19:53:52;25.70;58.80
43884;DHT22;29544;52.018;5.810;2022-08-23T19:56:43;25.70;58.80
43884;DHT22;29544;52.018;5.810;2022-08-23T19:59:14;25.70;58.90
43884;DHT22;29544;52.018;5.810;2022-08-23T20:01:41;25.70;58.90
43884;DHT22;29544;52.018;5.810;2022-08-23T20:04:06;25.70;58.90
43884;DHT22;29544;52.018;5.810;2022-08-23T20:06:32;25.70;58.90
43884;DHT22;29544;52.018;5.810;2022-08-23T20:08:59;25.60;58.90
43884;DHT22;29544;52.018;5.810;2022-08-23T20:11:26;25.70;59.00
43884;DHT22;29544;52.018;5.810;2022-08-23T20:13:56;25.60;59.00
43884;DHT22;29544;52.018;5.810;2022-08-23T20:16:22;25.70;59.10
43884;DHT22;29544;52.018;5.810;2022-08-23T20:18:48;25.60;59.10
43884;DHT22;29544;52.018;5.810;2022-08-23T20:21:13;25.60;59.20
43884;DHT22;29544;52.018;5.810;2022-08-23T20:23:39;25.60;59.20
43884;DHT22;29544;52.018;5.810;2022-08-23T20:26:23;25.60;59.30
43884;DHT22;29544;52.018;5.810;2022-08-23T20:28:50;25.70;59.40
43884;DHT22;29544;52.018;5.810;2022-08-23T20:31:17;25.60;59.50
43884;DHT22;29544;52.018;5.810;2022-08-23T20:33:43;25.60;59.50
43884;DHT22;29544;52.018;5.810;2022-08-23T20:36:09;25.50;59.50
43884;DHT22;29544;52.018;5.810;2022-08-23T20:38:35;25.50;59.50
43884;DHT22;29544;52.018;5.810;2022-08-23T20:41:01;25.50;59.70
43884;DHT22;29544;52.018;5.810;2022-08-23T20:43:26;25.50;59.80
43884;DHT22;29544;52.018;5.810;2022-08-23T20:45:52;25.70;59.90
43884;DHT22;29544;52.018;5.810;2022-08-23T20:48:17;25.60;59.90
43884;DHT22;29544;52.018;5.810;2022-08-23T20:50:43;25.50;59.90
43884;DHT22;29544;52.018;5.810;2022-08-23T20:53:09;25.60;59.90
43884;DHT22;29544;52.018;5.810;2022-08-23T20:55:38;25.60;60.00
43884;DHT22;29544;52.018;5.810;2022-08-23T20:58:04;25.60;60.20
43884;DHT22;29544;52.018;5.810;2022-08-23T21:00:30;25.60;60.10
43884;DHT22;29544;52.018;5.810;2022-08-23T21:02:56;25.50;60.10
43884;DHT22;29544;52.018;5.810;2022-08-23T21:05:21;25.50;60.20
43884;DHT22;29544;52.018;5.810;2022-08-23T21:07:47;25.50;60.20
43884;DHT22;29544;52.018;5.810;2022-08-23T21:10:13;25.50;60.30
43884;DHT22;29544;52.018;5.810;2022-08-23T21:12:38;25.50;60.30
43884;DHT22;29544;52.018;5.810;2022-08-23T21:15:05;25.50;60.40
43884;DHT22;29544;52.018;5.810;2022-08-23T21:17:31;25.50;60.30
43884;DHT22;29544;52.018;5.810;2022-08-23T21:19:56;25.60;60.50
43884;DHT22;29544;52.018;5.810;2022-08-23T21:22:22;25.50;60.40
43884;DHT22;29544;52.018;5.810;2022-08-23T21:24:48;25.50;60.40
43884;DHT22;29544;52.018;5.810;2022-08-23T21:27:14;25.50;60.60
43884;DHT22;29544;52.018;5.810;2022-08-23T21:29:39;25.50;60.60